sensor_id;sensor_type;location;lat;lon;timestamp;pressure;altitude;pressure_sealevel;temperature
71463;BMP180;59266;52.608;13.260;2023-07-16T00:02:01;100408.00;;;23.40
71463;BMP180;59266;52.608;13.260;2023-07-16T00:04:32;100410.00;;;23.30
71463;BMP180;59266;52.608;13.260;2023-07-16T00:07:00;100409.00;;;23.20
71463;BMP180;59266;52.608;13.260;2023-07-16T00:09:29;100404.00;;;23.10
71463;BMP180;59266;52.608;13.260;2023-07-16T00:11:56;100392.00;;;23.00
71463;BMP180;59266;52.608;13.260;2023-07-16T00:14:23;100400.00;;;22.70
71463;BMP180;59266;52.608;13.260;2023-07-16T00:16:51;100389.00;;;22.90
71463;BMP180;59266;52.608;13.260;2023-07-16T00:19:19;100376.00;;;22.80
71463;BMP180;59266;52.608;13.260;2023-07-16T00:21:45;100379.00;;;22.60
71463;BMP180;59266;52.608;13.260;2023-07-16T00:24:13;100387.00;;;22.70
71463;BMP180;59266;52.608;13.260;2023-07-16T00:26:40;100391.00;;;22.50
71463;BMP180;59266;52.608;13.260;2023-07-16T00:29:06;100391.00;;;22.40
71463;BMP180;59266;52.608;13.260;2023-07-16T00:31:35;100398.00;;;22.30
71463;BMP180;59266;52.608;13.260;2023-07-16T00:34:04;100401.00;;;22.40
71463;BMP180;59266;52.608;13.260;2023-07-16T00:36:31;100415.00;;;22.60
71463;BMP180;59266;52.608;13.260;2023-07-16T00:39:00;100415.00;;;22.60
71463;BMP180;59266;52.608;13.260;2023-07-16T00:41:28;100424.00;;;22.60
71463;BMP180;59266;52.608;13.260;2023-07-16T00:43:55;100436.00;;;22.70
71463;BMP180;59266;52.608;13.260;2023-07-16T00:46:21;100438.00;;;22.70
71463;BMP180;59266;52.608;13.260;2023-07-16T00:48:49;100451.00;;;22.70
71463;BMP180;59266;52.608;13.260;2023-07-16T00:51:16;100469.00;;;22.50
71463;BMP180;59266;52.608;13.260;2023-07-16T00:53:44;100481.00;;;22.60
71463;BMP180;59266;52.608;13.260;2023-07-16T00:56:16;100489.00;;;22.50
71463;BMP180;59266;52.608;13.260;2023-07-16T00:58:44;100507.00;;;22.60
71463;BMP180;59266;52.608;13.260;2023-07-16T01:01:10;100508.00;;;22.50
71463;BMP180;59266;52.608;13.260;2023-07-16T01:03:38;100526.00;;;22.60
71463;BMP180;59266;52.608;13.260;2023-07-16T01:06:11;100549.00;;;22.50
71463;BMP180;59266;52.608;13.260;2023-07-16T01:08:46;100562.00;;;22.50
71463;BMP180;59266;52.608;13.260;2023-07-16T01:11:15;100575.00;;;22.60
71463;BMP180;59266;52.608;13.260;2023-07-16T01:13:42;100588.00;;;22.60
71463;BMP180;59266;52.608;13.260;2023-07-16T01:16:19;100600.00;;;22.70
71463;BMP180;59266;52.608;13.260;2023-07-16T01:18:49;100593.00;;;22.80
71463;BMP180;59266;52.608;13.260;2023-07-16T01:21:20;100600.00;;;22.80
71463;BMP180;59266;52.608;13.260;2023-07-16T01:27:00;100648.00;;;22.80
71463;BMP180;59266;52.608;13.260;2023-07-16T01:29:42;100654.00;;;22.80
71463;BMP180;59266;52.608;13.260;2023-07-16T01:32:13;100661.00;;;22.80
71463;BMP180;59266;52.608;13.260;2023-07-16T01:34:40;100689.00;;;22.60
71463;BMP180;59266;52.608;13.260;2023-07-16T01:37:11;100689.00;;;22.60
71463;BMP180;59266;52.608;13.260;2023-07-16T01:39:38;100708.00;;;22.40
71463;BMP180;59266;52.608;13.260;2023-07-16T01:42:09;100699.00;;;22.30
71463;BMP180;59266;52.608;13.260;2023-07-16T01:44:36;100704.00;;;22.00
71463;BMP180;59266;52.608;13.260;2023-07-16T01:47:11;100706.00;;;21.90
71463;BMP180;59266;52.608;13.260;2023-07-16T01:49:40;100708.00;;;21.90
71463;BMP180;59266;52.608;13.260;2023-07-16T01:52:09;100701.00;;;21.90
71463;BMP180;59266;52.608;13.260;2023-07-16T01:54:36;100699.00;;;21.90
71463;BMP180;59266;52.608;13.260;2023-07-16T01:57:04;100719.00;;;21.90
71463;BMP180;59266;52.608;13.260;2023-07-16T01:59:31;100719.00;;;21.90
71463;BMP180;59266;52.608;13.260;2023-07-16T02:01:58;100717.00;;;22.00
71463;BMP180;59266;52.608;13.260;2023-07-16T02:04:25;100728.00;;;21.90
71463;BMP180;59266;52.608;13.260;2023-07-16T02:06:52;100721.00;;;21.80
71463;BMP180;59266;52.608;13.260;2023-07-16T02:09:20;100724.00;;;21.70
71463;BMP180;59266;52.608;13.260;2023-07-16T02:11:47;100718.00;;;21.80
71463;BMP180;59266;52.608;13.260;2023-07-16T02:14:14;100723.00;;;21.80
71463;BMP180;59266;52.608;13.260;2023-07-16T02:16:42;100715.00;;;21.80
71463;BMP180;59266;52.608;13.260;2023-07-16T02:19:09;100723.00;;;21.90
71463;BMP180;59266;52.608;13.260;2023-07-16T02:21:36;100714.00;;;21.80
71463;BMP180;59266;52.608;13.260;2023-07-16T02:24:03;100695.00;;;21.70
71463;BMP180;59266;52.608;13.260;2023-07-16T02:26:30;100704.00;;;21.70
71463;BMP180;59266;52.608;13.260;2023-07-16T02:28:56;100703.00;;;21.50
71463;BMP180;59266;52.608;13.260;2023-07-16T02:31:28;100688.00;;;21.50
71463;BMP180;59266;52.608;13.260;2023-07-16T02:33:55;100694.00;;;21.30
71463;BMP180;59266;52.608;13.260;2023-07-16T02:36:22;100692.00;;;21.40
71463;BMP180;59266;52.608;13.260;2023-07-16T02:38:50;100685.00;;;21.40
71463;BMP180;59266;52.608;13.260;2023-07-16T02:41:17;100672.00;;;21.50
71463;BMP180;59266;52.608;13.260;2023-07-16T02:43:45;100662.00;;;21.40
71463;BMP180;59266;52.608;13.260;2023-07-16T02:46:12;100661.00;;;21.60
71463;BMP180;59266;52.608;13.260;2023-07-16T02:48:40;100666.00;;;21.50
71463;BMP180;59266;52.608;13.260;2023-07-16T02:51:06;100688.00;;;21.40
71463;BMP180;59266;52.608;13.260;2023-07-16T02:53:35;100681.00;;;21.40
71463;BMP180;59266;52.608;13.260;2023-07-16T02:56:02;100692.00;;;21.40
71463;BMP180;59266;52.608;13.260;2023-07-16T02:58:30;100699.00;;;21.40
71463;BMP180;59266;52.608;13.260;2023-07-16T03:01:00;100697.00;;;21.40
71463;BMP180;59266;52.608;13.260;2023-07-16T03:03:27;100702.00;;;21.40
71463;BMP180;59266;52.608;13.260;2023-07-16T03:06:02;100698.00;;;21.40
71463;BMP180;59266;52.608;13.260;2023-07-16T03:08:28;100684.00;;;21.30
71463;BMP180;59266;52.608;13.260;2023-07-16T03:10:56;100678.00;;;21.40
71463;BMP180;59266;52.608;13.260;2023-07-16T03:13:27;100666.00;;;21.30
71463;BMP180;59266;52.608;13.260;2023-07-16T03:15:53;100656.00;;;21.40
71463;BMP180;59266;52.608;13.260;2023-07-16T03:18:20;100672.00;;;21.40
71463;BMP180;59266;52.608;13.260;2023-07-16T03:20:47;100658.00;;;21.30
71463;BMP180;59266;52.608;13.260;2023-07-16T03:23:14;100635.00;;;21.20
71463;BMP180;59266;52.608;13.260;2023-07-16T03:25:40;100625.00;;;21.20
71463;BMP180;59266;52.608;13.260;2023-07-16T03:28:08;100637.00;;;21.20
71463;BMP180;59266;52.608;13.260;2023-07-16T03:30:35;100641.00;;;21.30
71463;BMP180;59266;52.608;13.260;2023-07-16T03:33:03;100667.00;;;21.20
71463;BMP180;59266;52.608;13.260;2023-07-16T03:35:30;100660.00;;;21.20
71463;BMP180;59266;52.608;13.260;2023-07-16T03:37:57;100656.00;;;21.10
71463;BMP180;59266;52.608;13.260;2023-07-16T03:40:25;100662.00;;;21.20
71463;BMP180;59266;52.608;13.260;2023-07-16T03:42:53;100653.00;;;21.10
71463;BMP180;59266;52.608;13.260;2023-07-16T03:45:20;100674.00;;;21.10
71463;BMP180;59266;52.608;13.260;2023-07-16T03:47:47;100705.00;;;21.10
71463;BMP180;59266;52.608;13.260;2023-07-16T03:50:14;100709.00;;;21.10
71463;BMP180;59266;52.608;13.260;2023-07-16T03:52:41;100695.00;;;21.00
71463;BMP180;59266;52.608;13.260;2023-07-16T03:55:09;100687.00;;;21.00
71463;BMP180;59266;52.608;13.260;2023-07-16T03:57:36;100683.00;;;21.20
71463;BMP180;59266;52.608;13.260;2023-07-16T04:00:04;100684.00;;;21.20
71463;BMP180;59266;52.608;13.260;2023-07-16T04:02:35;100699.00;;;21.30
71463;BMP180;59266;52.608;13.260;2023-07-16T04:05:02;100699.00;;;21.20
71463;BMP180;59266;52.608;13.260;2023-07-16T04:07:29;100701.00;;;21.40
71463;BMP180;59266;52.608;13.260;2023-07-16T04:09:56;100694.00;;;21.10
71463;BMP180;59266;52.608;13.260;2023-07-16T04:12:24;100684.00;;;21.20
71463;BMP180;59266;52.608;13.260;2023-07-16T04:14:55;100663.00;;;21.00
71463;BMP180;59266;52.608;13.260;2023-07-16T04:17:22;100669.00;;;21.10
71463;BMP180;59266;52.608;13.260;2023-07-16T04:19:48;100661.00;;;21.20
71463;BMP180;59266;52.608;13.260;2023-07-16T04:22:15;100650.00;;;21.30
71463;BMP180;59266;52.608;13.260;2023-07-16T04:24:42;100668.00;;;21.40
71463;BMP180;59266;52.608;13.260;2023-07-16T04:27:08;100677.00;;;21.10
71463;BMP180;59266;52.608;13.260;2023-07-16T04:29:35;100678.00;;;21.30
71463;BMP180;59266;52.608;13.260;2023-07-16T04:32:03;100696.00;;;21.40
71463;BMP180;59266;52.608;13.260;2023-07-16T04:34:30;100694.00;;;21.40
71463;BMP180;59266;52.608;13.260;2023-07-16T04:36:57;100696.00;;;21.30
71463;BMP180;59266;52.608;13.260;2023-07-16T04:39:24;100714.00;;;21.30
71463;BMP180;59266;52.608;13.260;2023-07-16T04:41:51;100718.00;;;21.20
71463;BMP180;59266;52.608;13.260;2023-07-16T04:44:18;100695.00;;;21.20
71463;BMP180;59266;52.608;13.260;2023-07-16T04:46:45;100718.00;;;21.40
71463;BMP180;59266;52.608;13.260;2023-07-16T04:49:12;100734.00;;;21.30
71463;BMP180;59266;52.608;13.260;2023-07-16T04:51:39;100736.00;;;21.20
71463;BMP180;59266;52.608;13.260;2023-07-16T04:54:06;100736.00;;;21.30
71463;BMP180;59266;52.608;13.260;2023-07-16T04:56:32;100732.00;;;21.30
71463;BMP180;59266;52.608;13.260;2023-07-16T04:59:01;100732.00;;;21.30
71463;BMP180;59266;52.608;13.260;2023-07-16T05:01:28;100729.00;;;21.40
71463;BMP180;59266;52.608;13.260;2023-07-16T05:03:55;100739.00;;;21.20
71463;BMP180;59266;52.608;13.260;2023-07-16T05:06:22;100765.00;;;21.50
71463;BMP180;59266;52.608;13.260;2023-07-16T05:08:49;100768.00;;;21.60
71463;BMP180;59266;52.608;13.260;2023-07-16T05:11:15;100765.00;;;21.40
71463;BMP180;59266;52.608;13.260;2023-07-16T05:13:43;100769.00;;;21.40
71463;BMP180;59266;52.608;13.260;2023-07-16T05:16:10;100773.00;;;21.60
71463;BMP180;59266;52.608;13.260;2023-07-16T05:18:36;100763.00;;;21.70
71463;BMP180;59266;52.608;13.260;2023-07-16T05:21:04;100761.00;;;21.80
71463;BMP180;59266;52.608;13.260;2023-07-16T05:23:31;100770.00;;;21.70
71463;BMP180;59266;52.608;13.260;2023-07-16T05:25:59;100781.00;;;21.80
71463;BMP180;59266;52.608;13.260;2023-07-16T05:28:26;100786.00;;;22.00
71463;BMP180;59266;52.608;13.260;2023-07-16T05:31:00;100776.00;;;22.10
71463;BMP180;59266;52.608;13.260;2023-07-16T05:33:27;100787.00;;;22.20
71463;BMP180;59266;52.608;13.260;2023-07-16T05:35:54;100781.00;;;22.30
71463;BMP180;59266;52.608;13.260;2023-07-16T05:38:21;100786.00;;;22.30
71463;BMP180;59266;52.608;13.260;2023-07-16T05:40:48;100789.00;;;22.60
71463;BMP180;59266;52.608;13.260;2023-07-16T05:43:15;100787.00;;;22.60
71463;BMP180;59266;52.608;13.260;2023-07-16T05:45:45;100781.00;;;22.20
71463;BMP180;59266;52.608;13.260;2023-07-16T05:48:13;100777.00;;;22.60
71463;BMP180;59266;52.608;13.260;2023-07-16T05:50:43;100784.00;;;22.50
71463;BMP180;59266;52.608;13.260;2023-07-16T05:53:10;100780.00;;;22.60
71463;BMP180;59266;52.608;13.260;2023-07-16T05:55:40;100781.00;;;22.50
71463;BMP180;59266;52.608;13.260;2023-07-16T05:58:06;100780.00;;;22.70
71463;BMP180;59266;52.608;13.260;2023-07-16T06:00:36;100764.00;;;23.10
71463;BMP180;59266;52.608;13.260;2023-07-16T06:03:03;100773.00;;;24.30
71463;BMP180;59266;52.608;13.260;2023-07-16T06:05:30;100770.00;;;25.20
71463;BMP180;59266;52.608;13.260;2023-07-16T06:08:00;100778.00;;;28.90
71463;BMP180;59266;52.608;13.260;2023-07-16T06:10:27;100768.00;;;28.90
71463;BMP180;59266;52.608;13.260;2023-07-16T06:12:54;100770.00;;;30.60
71463;BMP180;59266;52.608;13.260;2023-07-16T06:15:21;100764.00;;;29.50
71463;BMP180;59266;52.608;13.260;2023-07-16T06:17:50;100774.00;;;30.00
71463;BMP180;59266;52.608;13.260;2023-07-16T06:20:17;100773.00;;;30.40
71463;BMP180;59266;52.608;13.260;2023-07-16T06:22:44;100782.00;;;31.00
71463;BMP180;59266;52.608;13.260;2023-07-16T06:25:14;100782.00;;;33.00
71463;BMP180;59266;52.608;13.260;2023-07-16T06:27:40;100785.00;;;32.30
71463;BMP180;59266;52.608;13.260;2023-07-16T06:30:07;100792.00;;;32.50
71463;BMP180;59266;52.608;13.260;2023-07-16T06:32:34;100791.00;;;33.80
71463;BMP180;59266;52.608;13.260;2023-07-16T06:35:01;100795.00;;;32.60
71463;BMP180;59266;52.608;13.260;2023-07-16T06:37:27;100800.00;;;33.80
71463;BMP180;59266;52.608;13.260;2023-07-16T06:39:54;100803.00;;;33.20
71463;BMP180;59266;52.608;13.260;2023-07-16T06:42:21;100804.00;;;35.90
71463;BMP180;59266;52.608;13.260;2023-07-16T06:44:48;100801.00;;;34.70
71463;BMP180;59266;52.608;13.260;2023-07-16T06:47:15;100828.00;;;33.90
71463;BMP180;59266;52.608;13.260;2023-07-16T06:49:43;100805.00;;;32.50
71463;BMP180;59266;52.608;13.260;2023-07-16T06:52:20;100803.00;;;33.80
71463;BMP180;59266;52.608;13.260;2023-07-16T06:54:48;100823.00;;;31.30
71463;BMP180;59266;52.608;13.260;2023-07-16T06:57:14;100834.00;;;30.30
71463;BMP180;59266;52.608;13.260;2023-07-16T06:59:41;100822.00;;;28.20
71463;BMP180;59266;52.608;13.260;2023-07-16T07:02:08;100799.00;;;29.70
71463;BMP180;59266;52.608;13.260;2023-07-16T07:04:34;100804.00;;;31.70
71463;BMP180;59266;52.608;13.260;2023-07-16T07:07:01;100822.00;;;31.00
71463;BMP180;59266;52.608;13.260;2023-07-16T07:09:28;100810.00;;;32.40
71463;BMP180;59266;52.608;13.260;2023-07-16T07:11:56;100838.00;;;30.40
71463;BMP180;59266;52.608;13.260;2023-07-16T07:14:23;100837.00;;;29.10
71463;BMP180;59266;52.608;13.260;2023-07-16T07:16:50;100836.00;;;31.20
71463;BMP180;59266;52.608;13.260;2023-07-16T07:19:19;100825.00;;;30.20
71463;BMP180;59266;52.608;13.260;2023-07-16T07:21:50;100846.00;;;29.60
71463;BMP180;59266;52.608;13.260;2023-07-16T07:24:17;100854.00;;;29.90
71463;BMP180;59266;52.608;13.260;2023-07-16T07:26:47;100820.00;;;31.30
71463;BMP180;59266;52.608;13.260;2023-07-16T07:29:14;100834.00;;;34.60
71463;BMP180;59266;52.608;13.260;2023-07-16T07:31:41;100853.00;;;35.10
71463;BMP180;59266;52.608;13.260;2023-07-16T07:34:08;100861.00;;;31.90
71463;BMP180;59266;52.608;13.260;2023-07-16T07:36:36;100856.00;;;32.30
71463;BMP180;59266;52.608;13.260;2023-07-16T07:39:04;100872.00;;;32.50
71463;BMP180;59266;52.608;13.260;2023-07-16T07:41:30;100878.00;;;30.90
71463;BMP180;59266;52.608;13.260;2023-07-16T07:43:59;100869.00;;;30.70
71463;BMP180;59266;52.608;13.260;2023-07-16T07:46:25;100886.00;;;30.60
71463;BMP180;59266;52.608;13.260;2023-07-16T07:48:52;100880.00;;;29.70
71463;BMP180;59266;52.608;13.260;2023-07-16T07:51:20;100891.00;;;30.60
71463;BMP180;59266;52.608;13.260;2023-07-16T07:53:48;100898.00;;;33.30
71463;BMP180;59266;52.608;13.260;2023-07-16T07:56:15;100870.00;;;33.10
71463;BMP180;59266;52.608;13.260;2023-07-16T07:58:42;100871.00;;;33.60
71463;BMP180;59266;52.608;13.260;2023-07-16T08:01:09;100899.00;;;31.70
71463;BMP180;59266;52.608;13.260;2023-07-16T08:03:36;100896.00;;;31.10
71463;BMP180;59266;52.608;13.260;2023-07-16T08:06:03;100883.00;;;30.90
71463;BMP180;59266;52.608;13.260;2023-07-16T08:08:31;100882.00;;;32.20
71463;BMP180;59266;52.608;13.260;2023-07-16T08:10:59;100867.00;;;33.20
71463;BMP180;59266;52.608;13.260;2023-07-16T08:13:26;100868.00;;;33.90
71463;BMP180;59266;52.608;13.260;2023-07-16T08:15:52;100867.00;;;34.20
71463;BMP180;59266;52.608;13.260;2023-07-16T08:18:21;100904.00;;;32.50
71463;BMP180;59266;52.608;13.260;2023-07-16T08:20:47;100901.00;;;30.70
71463;BMP180;59266;52.608;13.260;2023-07-16T08:23:14;100912.00;;;28.50
71463;BMP180;59266;52.608;13.260;2023-07-16T08:25:42;100921.00;;;27.90
71463;BMP180;59266;52.608;13.260;2023-07-16T08:28:11;100887.00;;;28.70
71463;BMP180;59266;52.608;13.260;2023-07-16T08:30:40;100882.00;;;30.50
71463;BMP180;59266;52.608;13.260;2023-07-16T08:33:08;100892.00;;;32.50
71463;BMP180;59266;52.608;13.260;2023-07-16T08:35:35;100882.00;;;32.90
71463;BMP180;59266;52.608;13.260;2023-07-16T08:38:01;100886.00;;;34.00
71463;BMP180;59266;52.608;13.260;2023-07-16T08:40:28;100916.00;;;33.10
71463;BMP180;59266;52.608;13.260;2023-07-16T08:42:56;100936.00;;;30.90
71463;BMP180;59266;52.608;13.260;2023-07-16T08:45:25;100943.00;;;29.20
71463;BMP180;59266;52.608;13.260;2023-07-16T08:47:55;100919.00;;;27.60
71463;BMP180;59266;52.608;13.260;2023-07-16T08:50:22;100944.00;;;27.50
71463;BMP180;59266;52.608;13.260;2023-07-16T08:52:51;100947.00;;;27.90
71463;BMP180;59266;52.608;13.260;2023-07-16T08:55:18;100933.00;;;28.60
71463;BMP180;59266;52.608;13.260;2023-07-16T08:57:45;100914.00;;;31.10
71463;BMP180;59266;52.608;13.260;2023-07-16T09:00:14;100929.00;;;33.10
71463;BMP180;59266;52.608;13.260;2023-07-16T09:02:42;100910.00;;;33.30
71463;BMP180;59266;52.608;13.260;2023-07-16T09:05:09;100927.00;;;32.10
71463;BMP180;59266;52.608;13.260;2023-07-16T09:07:46;100938.00;;;30.70
71463;BMP180;59266;52.608;13.260;2023-07-16T09:10:12;100903.00;;;29.90
71463;BMP180;59266;52.608;13.260;2023-07-16T09:12:43;100935.00;;;29.50
71463;BMP180;59266;52.608;13.260;2023-07-16T09:15:11;100929.00;;;32.60
71463;BMP180;59266;52.608;13.260;2023-07-16T09:17:39;100935.00;;;32.30
71463;BMP180;59266;52.608;13.260;2023-07-16T09:20:07;100915.00;;;35.10
71463;BMP180;59266;52.608;13.260;2023-07-16T09:22:35;100946.00;;;34.10
71463;BMP180;59266;52.608;13.260;2023-07-16T09:25:02;100957.00;;;33.10
71463;BMP180;59266;52.608;13.260;2023-07-16T09:27:30;100959.00;;;30.80
71463;BMP180;59266;52.608;13.260;2023-07-16T09:29:57;100915.00;;;29.70
71463;BMP180;59266;52.608;13.260;2023-07-16T09:32:38;100916.00;;;31.80
71463;BMP180;59266;52.608;13.260;2023-07-16T09:35:15;100922.00;;;34.40
71463;BMP180;59266;52.608;13.260;2023-07-16T09:37:43;100916.00;;;33.80
71463;BMP180;59266;52.608;13.260;2023-07-16T09:40:11;100918.00;;;35.70
71463;BMP180;59266;52.608;13.260;2023-07-16T09:42:58;100925.00;;;35.80
71463;BMP180;59266;52.608;13.260;2023-07-16T09:45:25;100927.00;;;34.20
71463;BMP180;59266;52.608;13.260;2023-07-16T09:48:03;100925.00;;;35.40
71463;BMP180;59266;52.608;13.260;2023-07-16T09:50:34;100930.00;;;34.90
71463;BMP180;59266;52.608;13.260;2023-07-16T09:53:03;100931.00;;;35.70
71463;BMP180;59266;52.608;13.260;2023-07-16T09:55:32;100922.00;;;36.40
71463;BMP180;59266;52.608;13.260;2023-07-16T09:58:06;100929.00;;;34.90
71463;BMP180;59266;52.608;13.260;2023-07-16T10:00:37;100925.00;;;36.40
71463;BMP180;59266;52.608;13.260;2023-07-16T10:03:07;100922.00;;;34.40
71463;BMP180;59266;52.608;13.260;2023-07-16T10:05:36;100932.00;;;32.90
71463;BMP180;59266;52.608;13.260;2023-07-16T10:08:04;100931.00;;;33.80
71463;BMP180;59266;52.608;13.260;2023-07-16T10:10:39;100925.00;;;33.20
71463;BMP180;59266;52.608;13.260;2023-07-16T10:13:12;100918.00;;;34.90
71463;BMP180;59266;52.608;13.260;2023-07-16T10:15:49;100957.00;;;33.40
71463;BMP180;59266;52.608;13.260;2023-07-16T10:18:49;100963.00;;;32.60
71463;BMP180;59266;52.608;13.260;2023-07-16T10:21:22;100945.00;;;31.90
71463;BMP180;59266;52.608;13.260;2023-07-16T10:23:59;100929.00;;;33.00
71463;BMP180;59266;52.608;13.260;2023-07-16T10:26:29;100935.00;;;34.00
71463;BMP180;59266;52.608;13.260;2023-07-16T10:28:56;100930.00;;;33.10
71463;BMP180;59266;52.608;13.260;2023-07-16T10:31:24;100959.00;;;34.20
71463;BMP180;59266;52.608;13.260;2023-07-16T10:34:02;100976.00;;;30.70
71463;BMP180;59266;52.608;13.260;2023-07-16T10:36:41;100979.00;;;30.40
71463;BMP180;59266;52.608;13.260;2023-07-16T10:39:09;100930.00;;;31.50
71463;BMP180;59266;52.608;13.260;2023-07-16T10:41:39;100939.00;;;33.00
71463;BMP180;59266;52.608;13.260;2023-07-16T10:44:08;100976.00;;;32.50
71463;BMP180;59266;52.608;13.260;2023-07-16T10:46:36;100977.00;;;30.70
71463;BMP180;59266;52.608;13.260;2023-07-16T10:49:04;100942.00;;;30.60
71463;BMP180;59266;52.608;13.260;2023-07-16T10:51:31;100933.00;;;32.20
71463;BMP180;59266;52.608;13.260;2023-07-16T10:53:58;100937.00;;;31.60
71463;BMP180;59266;52.608;13.260;2023-07-16T10:56:25;100943.00;;;32.70
71463;BMP180;59266;52.608;13.260;2023-07-16T10:58:52;100936.00;;;33.60
71463;BMP180;59266;52.608;13.260;2023-07-16T11:01:21;100929.00;;;33.20
71463;BMP180;59266;52.608;13.260;2023-07-16T11:03:50;100963.00;;;32.60
71463;BMP180;59266;52.608;13.260;2023-07-16T11:06:18;100928.00;;;32.60
71463;BMP180;59266;52.608;13.260;2023-07-16T11:08:45;100969.00;;;32.10
71463;BMP180;59266;52.608;13.260;2023-07-16T11:11:12;100957.00;;;32.00
71463;BMP180;59266;52.608;13.260;2023-07-16T11:13:43;100968.00;;;31.50
71463;BMP180;59266;52.608;13.260;2023-07-16T11:16:15;100930.00;;;31.90
71463;BMP180;59266;52.608;13.260;2023-07-16T11:18:43;100939.00;;;32.70
71463;BMP180;59266;52.608;13.260;2023-07-16T11:21:10;100960.00;;;31.60
71463;BMP180;59266;52.608;13.260;2023-07-16T11:23:37;100962.00;;;30.90
71463;BMP180;59266;52.608;13.260;2023-07-16T11:26:04;100961.00;;;30.60
71463;BMP180;59266;52.608;13.260;2023-07-16T11:28:38;100980.00;;;30.20
71463;BMP180;59266;52.608;13.260;2023-07-16T11:31:16;100983.00;;;30.20
71463;BMP180;59266;52.608;13.260;2023-07-16T11:33:44;100949.00;;;30.30
71463;BMP180;59266;52.608;13.260;2023-07-16T11:36:12;100946.00;;;31.10
71463;BMP180;59266;52.608;13.260;2023-07-16T11:38:39;100949.00;;;31.90
71463;BMP180;59266;52.608;13.260;2023-07-16T11:41:06;100950.00;;;31.70
71463;BMP180;59266;52.608;13.260;2023-07-16T11:43:40;100942.00;;;32.30
71463;BMP180;59266;52.608;13.260;2023-07-16T11:46:15;100946.00;;;32.80
71463;BMP180;59266;52.608;13.260;2023-07-16T11:48:45;100939.00;;;32.30
71463;BMP180;59266;52.608;13.260;2023-07-16T11:51:13;100937.00;;;32.60
71463;BMP180;59266;52.608;13.260;2023-07-16T11:53:39;100936.00;;;32.80
71463;BMP180;59266;52.608;13.260;2023-07-16T11:56:07;100954.00;;;33.40
71463;BMP180;59266;52.608;13.260;2023-07-16T11:58:34;100938.00;;;32.30
71463;BMP180;59266;52.608;13.260;2023-07-16T12:01:03;100937.00;;;32.50
71463;BMP180;59266;52.608;13.260;2023-07-16T12:03:32;100975.00;;;33.50
71463;BMP180;59266;52.608;13.260;2023-07-16T12:05:59;100977.00;;;31.30
71463;BMP180;59266;52.608;13.260;2023-07-16T12:08:26;100954.00;;;31.30
71463;BMP180;59266;52.608;13.260;2023-07-16T12:10:53;100969.00;;;31.10
71463;BMP180;59266;52.608;13.260;2023-07-16T12:13:20;100940.00;;;31.80
71463;BMP180;59266;52.608;13.260;2023-07-16T12:15:46;100980.00;;;32.10
71463;BMP180;59266;52.608;13.260;2023-07-16T12:18:15;100985.00;;;31.10
71463;BMP180;59266;52.608;13.260;2023-07-16T12:20:42;100984.00;;;31.30
71463;BMP180;59266;52.608;13.260;2023-07-16T12:23:11;100981.00;;;31.70
71463;BMP180;59266;52.608;13.260;2023-07-16T12:25:38;100952.00;;;31.30
71463;BMP180;59266;52.608;13.260;2023-07-16T12:28:05;100987.00;;;30.70
71463;BMP180;59266;52.608;13.260;2023-07-16T12:30:31;100968.00;;;30.80
71463;BMP180;59266;52.608;13.260;2023-07-16T12:32:58;100995.00;;;30.70
71463;BMP180;59266;52.608;13.260;2023-07-16T12:35:25;100955.00;;;31.10
71463;BMP180;59266;52.608;13.260;2023-07-16T12:37:53;100954.00;;;31.70
71463;BMP180;59266;52.608;13.260;2023-07-16T12:40:19;100956.00;;;31.70
71463;BMP180;59266;52.608;13.260;2023-07-16T12:42:46;100960.00;;;31.90
71463;BMP180;59266;52.608;13.260;2023-07-16T12:45:13;100960.00;;;32.70
71463;BMP180;59266;52.608;13.260;2023-07-16T12:47:40;100960.00;;;32.60
71463;BMP180;59266;52.608;13.260;2023-07-16T12:50:09;100949.00;;;32.20
71463;BMP180;59266;52.608;13.260;2023-07-16T12:52:36;100958.00;;;33.20
71463;BMP180;59266;52.608;13.260;2023-07-16T12:55:03;100960.00;;;33.00
71463;BMP180;59266;52.608;13.260;2023-07-16T12:57:30;100966.00;;;33.20
71463;BMP180;59266;52.608;13.260;2023-07-16T12:59:56;100957.00;;;33.10
71463;BMP180;59266;52.608;13.260;2023-07-16T13:02:23;100961.00;;;33.70
71463;BMP180;59266;52.608;13.260;2023-07-16T13:04:55;100972.00;;;33.10
71463;BMP180;59266;52.608;13.260;2023-07-16T13:07:23;100963.00;;;33.40
71463;BMP180;59266;52.608;13.260;2023-07-16T13:09:51;100963.00;;;33.00
71463;BMP180;59266;52.608;13.260;2023-07-16T13:12:37;100965.00;;;32.60
71463;BMP180;59266;52.608;13.260;2023-07-16T13:15:05;100959.00;;;32.30
71463;BMP180;59266;52.608;13.260;2023-07-16T13:17:31;101000.00;;;31.90
71463;BMP180;59266;52.608;13.260;2023-07-16T13:19:58;100972.00;;;32.70
71463;BMP180;59266;52.608;13.260;2023-07-16T13:22:25;100967.00;;;32.00
71463;BMP180;59266;52.608;13.260;2023-07-16T13:24:51;100975.00;;;32.90
71463;BMP180;59266;52.608;13.260;2023-07-16T13:27:23;100974.00;;;32.50
71463;BMP180;59266;52.608;13.260;2023-07-16T13:29:50;100963.00;;;32.80
71463;BMP180;59266;52.608;13.260;2023-07-16T13:32:21;100966.00;;;32.70
71463;BMP180;59266;52.608;13.260;2023-07-16T13:35:06;100963.00;;;33.00
71463;BMP180;59266;52.608;13.260;2023-07-16T13:37:33;100966.00;;;32.90
71463;BMP180;59266;52.608;13.260;2023-07-16T13:40:00;100999.00;;;33.20
71463;BMP180;59266;52.608;13.260;2023-07-16T13:42:28;101005.00;;;32.70
71463;BMP180;59266;52.608;13.260;2023-07-16T13:44:54;101009.00;;;31.90
71463;BMP180;59266;52.608;13.260;2023-07-16T13:47:21;101007.00;;;31.90
71463;BMP180;59266;52.608;13.260;2023-07-16T13:49:50;100978.00;;;32.40
71463;BMP180;59266;52.608;13.260;2023-07-16T13:52:18;100984.00;;;32.10
71463;BMP180;59266;52.608;13.260;2023-07-16T13:54:45;101003.00;;;32.10